Time;durP1;ratioP1;P1;durP2;ratioP2;P2;SDS_P1;SDS_P2;PMS_P1;PMS_P2;Temp;Humidity;BMP_temperature;BMP_pressure;BME280_temperature;BME280_humidity;BME280_pressure;Samples;Min_cycle;Max_cycle;Signal;HPM_P1;HPM_P2
2022/07/16 00:01:23;;;;;;;3.40;2.58;;;;;;;17.91;46.99;97074.88;4956083;29;20410;-76
2022/07/16 00:03:54;;;;;;;3.60;2.55;;;;;;;17.85;47.34;97076.53;4956461;29;20055;-75
2022/07/16 00:06:23;;;;;;;3.22;2.55;;;;;;;17.83;47.20;97077.78;4956629;29;20059;-75
2022/07/16 00:08:51;;;;;;;3.47;2.45;;;;;;;17.82;47.35;97082.25;4956132;29;20588;-75
2022/07/16 00:11:19;;;;;;;2.78;2.58;;;;;;;17.84;47.86;97076.72;4955861;29;20410;-76
2022/07/16 00:13:47;;;;;;;3.60;2.65;;;;;;;17.87;47.23;97078.97;4956221;29;20051;-76
2022/07/16 00:16:15;;;;;;;5.85;2.80;;;;;;;17.84;47.41;97079.38;4956299;29;20055;-76
2022/07/16 00:21:29;;;;;;;4.25;2.42;;;;;;;17.76;47.42;97084.91;4955814;29;20047;-76
2022/07/16 00:23:57;;;;;;;2.53;2.33;;;;;;;17.75;47.44;97081.44;4956020;29;20051;-76
2022/07/16 00:26:24;;;;;;;2.63;2.42;;;;;;;17.77;47.55;97083.88;4956012;29;20062;-76
2022/07/16 00:28:52;;;;;;;6.38;2.75;;;;;;;17.74;47.48;97086.97;4955880;29;20134;-75
2022/07/16 00:31:20;;;;;;;2.75;2.55;;;;;;;17.75;48.26;97085.91;4955952;29;20082;-75
2022/07/16 00:33:47;;;;;;;3.83;2.97;;;;;;;17.78;47.65;97074.94;4956134;29;20093;-75
2022/07/16 00:36:15;;;;;;;3.42;2.22;;;;;;;17.77;47.65;97079.41;4955753;29;20146;-75
2022/07/16 00:38:44;;;;;;;3.38;2.65;;;;;;;17.74;47.38;97081.69;4955821;29;20121;-75
2022/07/16 00:41:16;;;;;;;5.55;2.83;;;;;;;17.66;47.51;97086.19;4955260;29;20133;-75
2022/07/16 00:43:48;;;;;;;3.70;2.30;;;;;;;17.60;47.82;97083.59;4956480;29;20055;-75
2022/07/16 00:46:16;;;;;;;3.13;2.67;;;;;;;17.51;47.83;97093.59;4955662;29;20051;-76
2022/07/16 00:48:46;;;;;;;3.92;2.63;;;;;;;17.44;47.89;97084.94;4955439;28;20051;-76
2022/07/16 00:51:15;;;;;;;7.18;2.72;;;;;;;17.39;48.10;97087.41;4954979;29;20061;-76
2022/07/16 00:53:45;;;;;;;3.05;2.70;;;;;;;17.40;48.43;97089.00;4955274;29;20466;-75
2022/07/16 00:56:14;;;;;;;3.47;2.78;;;;;;;17.41;48.01;97091.44;4955624;29;20057;-75
2022/07/16 00:58:43;;;;;;;11.73;3.33;;;;;;;17.40;47.92;97083.75;4955185;29;20131;-76
2022/07/16 01:01:12;;;;;;;3.33;2.47;;;;;;;17.41;48.31;97090.66;4954998;29;20134;-76
2022/07/16 01:03:41;;;;;;;3.55;2.58;;;;;;;17.45;48.97;97086.56;4955352;29;20130;-76
2022/07/16 01:06:12;;;;;;;6.07;2.40;;;;;;;17.43;48.10;97089.41;4955089;29;20047;-75
2022/07/16 01:08:42;;;;;;;3.20;2.90;;;;;;;17.36;48.15;97085.19;4955295;29;20051;-75
2022/07/16 01:11:13;;;;;;;4.43;2.42;;;;;;;17.32;48.21;97092.72;4954784;29;20089;-75
2022/07/16 01:13:43;;;;;;;4.20;2.10;;;;;;;17.26;48.09;97091.72;4955290;29;20055;-75
2022/07/16 01:16:12;;;;;;;3.28;2.45;;;;;;;17.18;48.19;97086.69;4954974;29;20532;-75
2022/07/16 01:18:42;;;;;;;2.75;2.55;;;;;;;17.08;48.41;97083.75;4954714;29;20055;-75
2022/07/16 01:21:11;;;;;;;3.08;2.70;;;;;;;17.00;48.49;97081.34;4954968;29;20051;-75
2022/07/16 01:23:42;;;;;;;4.13;2.63;;;;;;;16.90;48.90;97084.41;4954849;29;20142;-76
2022/07/16 01:26:10;;;;;;;5.10;2.78;;;;;;;16.81;49.02;97081.22;4955064;29;20059;-76
2022/07/16 01:28:37;;;;;;;6.50;3.10;;;;;;;16.75;49.33;97084.66;4954665;29;20137;-75
2022/07/16 01:31:05;;;;;;;3.90;2.53;;;;;;;16.70;49.39;97079.19;4954536;29;20047;-75
2022/07/16 01:33:36;;;;;;;3.13;2.75;;;;;;;16.64;49.66;97086.13;4954946;29;20134;-75
2022/07/16 01:36:06;;;;;;;5.53;3.20;;;;;;;16.59;49.65;97085.13;4961595;29;20078;-76
2022/07/16 01:38:35;;;;;;;4.28;2.65;;;;;;;16.58;49.93;97091.41;4975423;29;20086;-76
2022/07/16 01:41:04;;;;;;;4.13;2.60;;;;;;;16.56;50.10;97090.81;4974534;29;20051;-75
2022/07/16 01:43:31;;;;;;;4.18;3.03;;;;;;;16.53;50.09;97099.09;4958956;29;20053;-75
2022/07/16 01:45:59;;;;;;;3.58;2.97;;;;;;;16.45;49.94;97090.44;4955057;29;20142;-76
2022/07/16 01:48:30;;;;;;;3.95;3.03;;;;;;;16.42;50.44;97090.84;4955004;29;20055;-76
2022/07/16 01:50:58;;;;;;;5.35;3.22;;;;;;;16.40;50.25;97084.97;4954471;29;20079;-76
2022/07/16 01:53:28;;;;;;;4.30;3.58;;;;;;;16.37;50.20;97090.66;4954552;29;20062;-76
2022/07/16 01:55:56;;;;;;;4.38;3.00;;;;;;;16.34;50.19;97096.34;4954670;29;20138;-75
2022/07/16 01:58:25;;;;;;;5.88;3.35;;;;;;;16.28;50.43;97097.16;4953893;28;20086;-75
2022/07/16 02:00:53;;;;;;;4.65;2.78;;;;;;;16.25;50.42;97098.38;4953933;29;20074;-75
2022/07/16 02:03:22;;;;;;;6.03;3.42;;;;;;;16.23;50.34;97094.34;4954437;29;20130;-76
2022/07/16 02:05:50;;;;;;;4.00;2.80;;;;;;;16.22;50.76;97085.63;4954506;29;20142;-75
2022/07/16 02:08:18;;;;;;;4.38;3.08;;;;;;;16.27;50.50;97092.91;4954577;29;20051;-75
2022/07/16 02:10:45;;;;;;;5.55;3.08;;;;;;;16.27;50.00;97092.91;4994381;23;20432;-77
2022/07/16 02:13:13;;;;;;;4.03;2.65;;;;;;;16.24;50.21;97091.47;4978688;28;20134;-80
2022/07/16 02:15:42;;;;;;;3.53;2.67;;;;;;;16.22;50.26;97097.97;4978332;28;20137;-78
2022/07/16 02:18:09;;;;;;;6.80;3.22;;;;;;;16.19;50.37;97093.13;4977747;28;20535;-78
2022/07/16 02:20:37;;;;;;;3.92;2.53;;;;;;;16.16;50.43;97098.78;4977258;28;20054;-79
2022/07/16 02:23:04;;;;;;;4.50;2.40;;;;;;;16.17;51.07;97089.88;4977106;28;20512;-78
2022/07/16 02:25:32;;;;;;;4.28;3.20;;;;;;;16.19;50.41;97093.13;4976663;28;20142;-79
2022/07/16 02:28:09;;;;;;;5.63;2.90;;;;;;;16.18;50.18;97099.38;4977037;28;20142;-80
2022/07/16 02:30:38;;;;;;;3.70;2.55;;;;;;;16.09;50.48;97098.78;4981412;28;20042;-79
2022/07/16 02:33:09;;;;;;;4.43;2.65;;;;;;;16.04;50.61;97099.41;4981340;28;20057;-78
2022/07/16 02:35:38;;;;;;;3.10;2.80;;;;;;;15.98;50.48;97097.63;4981490;28;20236;-79
2022/07/16 02:38:07;;;;;;;4.57;3.15;;;;;;;15.92;50.67;97103.69;4981265;28;20093;-79
2022/07/16 02:40:35;;;;;;;3.28;2.80;;;;;;;15.85;50.97;97087.06;4981390;28;20129;-80
2022/07/16 02:43:04;;;;;;;3.97;3.20;;;;;;;15.81;50.96;97088.50;4982441;28;20086;-79
2022/07/16 02:45:32;;;;;;;4.32;2.97;;;;;;;15.78;51.15;97094.16;4982154;28;20500;-79
2022/07/16 02:48:00;;;;;;;4.10;3.13;;;;;;;15.73;51.27;97088.72;4982141;28;20137;-77
2022/07/16 02:50:29;;;;;;;6.38;3.00;;;;;;;15.67;51.38;97100.81;4983146;28;20055;-79
2022/07/16 02:52:57;;;;;;;4.60;3.17;;;;;;;15.62;51.51;97090.09;4979520;28;20061;-81
2022/07/16 02:55:25;;;;;;;3.83;2.55;;;;;;;15.58;51.54;97091.50;4980066;28;20050;-80
2022/07/16 02:57:53;;;;;;;3.08;2.75;;;;;;;15.55;51.71;97092.72;4980014;28;20057;-77
2022/07/16 03:00:21;;;;;;;3.13;2.70;;;;;;;15.57;52.10;97095.16;4979959;28;20078;-79
2022/07/16 03:02:49;;;;;;;5.93;2.88;;;;;;;15.58;51.84;97087.03;4980310;28;20085;-78
2022/07/16 03:05:17;;;;;;;5.32;2.70;;;;;;;15.59;51.67;97088.66;4981289;28;20163;-81
2022/07/16 03:07:45;;;;;;;4.43;2.70;;;;;;;15.61;52.07;97085.81;4979552;28;20047;-79
2022/07/16 03:10:13;;;;;;;5.25;3.10;;;;;;;15.62;51.52;97088.25;4979569;28;20141;-79
2022/07/16 03:12:41;;;;;;;5.38;2.80;;;;;;;15.61;51.57;97088.44;4983285;28;20123;-79
2022/07/16 03:15:11;;;;;;;3.72;2.90;;;;;;;15.61;52.02;97091.91;4983226;28;20512;-79
2022/07/16 03:17:38;;;;;;;4.32;2.97;;;;;;;15.66;51.64;97096.56;4983634;28;20106;-78
2022/07/16 03:20:07;;;;;;;3.80;3.10;;;;;;;15.69;51.61;97096.16;4984942;28;20051;-81
2022/07/16 03:22:35;;;;;;;3.20;2.90;;;;;;;15.64;51.31;97094.13;4984944;28;20101;-82
2022/07/16 03:25:04;;;;;;;4.45;3.22;;;;;;;15.61;51.52;97102.44;4985039;28;20057;-78
2022/07/16 03:27:32;;;;;;;4.20;3.30;;;;;;;15.56;51.55;97091.69;4986208;28;20472;-81
2022/07/16 03:29:59;;;;;;;3.05;2.60;;;;;;;15.51;51.71;97094.13;4985449;28;20066;-78
2022/07/16 03:32:27;;;;;;;6.57;3.22;;;;;;;15.47;51.83;97092.09;4986772;28;20125;-80
2022/07/16 03:34:54;;;;;;;3.83;2.85;;;;;;;15.41;51.81;97097.16;4986291;28;20074;-81
2022/07/16 03:37:22;;;;;;;7.80;2.90;;;;;;;15.36;52.19;97093.50;4986766;28;20516;-79
2022/07/16 03:39:49;;;;;;;2.95;2.63;;;;;;;15.32;52.19;97092.28;4987175;28;20051;-79
2022/07/16 03:42:18;;;;;;;4.85;3.20;;;;;;;15.32;52.33;97094.91;4987687;28;20070;-79
2022/07/16 03:44:46;;;;;;;3.92;2.70;;;;;;;15.31;52.12;97099.34;4987300;28;20047;-81
2022/07/16 03:47:14;;;;;;;3.85;2.90;;;;;;;15.28;52.06;97096.31;4986917;28;20057;-78
2022/07/16 03:49:41;;;;;;;4.78;3.00;;;;;;;15.23;52.48;97096.91;4986616;28;20074;-77
2022/07/16 03:52:09;;;;;;;3.92;2.85;;;;;;;15.20;52.71;97097.31;4984845;28;20051;-78
2022/07/16 03:54:36;;;;;;;6.15;3.03;;;;;;;15.18;52.67;97102.75;4984558;28;20485;-77
2022/07/16 03:57:04;;;;;;;7.78;3.13;;;;;;;15.17;52.76;97108.19;4982695;28;20082;-78
2022/07/16 03:59:33;;;;;;;3.70;3.00;;;;;;;15.17;52.97;97106.38;4983481;28;20050;-80
2022/07/16 04:02:00;;;;;;;4.95;2.38;;;;;;;15.21;52.85;97107.59;4981940;28;20053;-79
2022/07/16 04:04:28;;;;;;;3.92;2.85;;;;;;;15.24;52.75;97112.47;4981643;28;20401;-78
2022/07/16 04:06:56;;;;;;;5.25;2.80;;;;;;;15.26;52.63;97120.16;4983328;28;20146;-78
2022/07/16 04:09:23;;;;;;;4.13;3.30;;;;;;;15.24;52.75;97112.47;4980969;28;20137;-76
2022/07/16 04:11:51;;;;;;;4.47;3.13;;;;;;;15.23;52.71;97121.34;4980262;28;20141;-79
2022/07/16 04:14:18;;;;;;;4.70;3.75;;;;;;;15.18;52.80;97123.78;4980624;28;20129;-78
2022/07/16 04:16:47;;;;;;;4.63;3.55;;;;;;;15.18;53.02;97121.16;4980094;28;20142;-78
2022/07/16 04:19:15;;;;;;;4.97;3.08;;;;;;;15.18;52.75;97126.41;4980361;28;20137;-79
2022/07/16 04:21:42;;;;;;;2.90;2.55;;;;;;;15.22;52.86;97124.19;4979390;28;20475;-78
2022/07/16 04:24:10;;;;;;;4.47;2.80;;;;;;;15.28;52.82;97122.59;4980466;28;20050;-78
2022/07/16 04:26:37;;;;;;;3.95;2.83;;;;;;;15.32;52.67;97129.06;4981085;28;20051;-78
2022/07/16 04:29:05;;;;;;;2.92;2.63;;;;;;;15.39;53.24;97124.63;4980095;28;20449;-77
2022/07/16 04:31:32;;;;;;;4.80;3.25;;;;;;;15.40;52.50;97126.25;4979945;28;20047;-78
2022/07/16 04:34:01;;;;;;;4.03;2.72;;;;;;;15.38;52.59;97128.28;4981228;28;20137;-79
2022/07/16 04:36:29;;;;;;;4.85;3.03;;;;;;;15.36;52.59;97130.28;4980319;28;20059;-80
2022/07/16 04:38:56;;;;;;;5.00;2.95;;;;;;;15.35;52.60;97133.91;4981391;28;20057;-79
2022/07/16 04:41:24;;;;;;;5.15;3.40;;;;;;;15.33;52.78;97126.25;4985383;28;20082;-79
2022/07/16 04:43:52;;;;;;;4.07;3.08;;;;;;;15.32;52.71;97129.88;4984807;28;20067;-80
2022/07/16 04:46:19;;;;;;;7.05;3.25;;;;;;;15.30;52.76;97131.09;4984665;28;20078;-81
2022/07/16 04:48:47;;;;;;;4.70;3.10;;;;;;;15.27;53.05;97127.03;4984084;28;20047;-80
2022/07/16 04:51:16;;;;;;;3.42;2.90;;;;;;;15.27;53.11;97136.75;4983007;28;20050;-78
2022/07/16 04:53:44;;;;;;;5.35;3.10;;;;;;;15.27;53.04;97131.50;4982354;28;20141;-78
2022/07/16 04:56:11;;;;;;;4.75;3.47;;;;;;;15.27;53.01;97134.13;4982252;28;20074;-78
2022/07/16 04:58:39;;;;;;;4.70;2.78;;;;;;;15.27;53.06;97132.28;4981884;28;20141;-79
2022/07/16 05:01:07;;;;;;;4.97;3.35;;;;;;;15.28;53.00;97144.41;4981327;28;20134;-83
2022/07/16 05:03:34;;;;;;;7.82;3.40;;;;;;;15.29;53.13;97134.72;4981580;28;20055;-81
2022/07/16 05:06:02;;;;;;;4.68;3.15;;;;;;;15.28;53.05;97141.78;4980750;28;20809;-79
2022/07/16 05:08:31;;;;;;;4.97;2.97;;;;;;;15.30;53.32;97136.34;4981183;28;20047;-80
2022/07/16 05:11:04;;;;;;;4.93;3.28;;;;;;;15.31;53.04;97141.41;4980470;28;20051;-80
2022/07/16 05:13:31;;;;;;;4.18;2.92;;;;;;;15.31;53.13;97144.03;4980702;28;20141;-81
2022/07/16 05:16:01;;;;;;;5.65;2.90;;;;;;;15.36;53.09;97141.59;4981025;28;20109;-77
2022/07/16 05:18:28;;;;;;;4.80;2.92;;;;;;;15.42;52.98;97150.53;4979841;28;20501;-79
2022/07/16 05:20:56;;;;;;;5.38;3.25;;;;;;;15.49;53.26;97150.53;4979665;28;20066;-78
2022/07/16 05:23:23;;;;;;;3.67;2.97;;;;;;;15.57;52.95;97151.16;4979170;28;20047;-79
2022/07/16 05:25:52;;;;;;;4.93;3.53;;;;;;;15.65;53.60;97161.50;4978668;28;20074;-78
2022/07/16 05:28:20;;;;;;;4.47;3.10;;;;;;;15.76;54.33;97156.69;4980489;28;20129;-78
2022/07/16 05:30:47;;;;;;;4.00;2.58;;;;;;;15.85;53.49;97158.09;4979871;28;20085;-77
2022/07/16 05:33:15;;;;;;;3.78;2.70;;;;;;;15.93;53.94;97160.53;4979499;28;20504;-78
2022/07/16 05:35:43;;;;;;;4.97;3.22;;;;;;;16.00;52.89;97156.06;4978967;28;20055;-78
2022/07/16 05:38:10;;;;;;;5.93;3.28;;;;;;;16.02;52.59;97156.69;4979761;28;20054;-78
2022/07/16 05:40:38;;;;;;;5.18;2.92;;;;;;;16.04;52.36;97157.28;4982767;28;20043;-80
2022/07/16 05:43:08;;;;;;;3.15;2.88;;;;;;;16.06;52.48;97157.91;4982024;28;20078;-80
2022/07/16 05:45:36;;;;;;;6.40;3.58;;;;;;;16.12;52.20;97163.38;4982370;28;20060;-80
2022/07/16 05:48:04;;;;;;;5.18;3.17;;;;;;;16.17;52.32;97159.13;4982408;28;20070;-76
2022/07/16 05:50:32;;;;;;;5.10;3.22;;;;;;;16.25;52.37;97160.75;4981162;28;20141;-79
2022/07/16 05:53:00;;;;;;;3.58;2.90;;;;;;;16.35;52.26;97162.94;4980685;28;20142;-79
2022/07/16 05:55:28;;;;;;;3.75;2.80;;;;;;;16.44;52.51;97159.91;4980299;28;20078;-79
2022/07/16 05:57:56;;;;;;;3.90;3.17;;;;;;;16.50;51.44;97162.75;4979928;28;20093;-77
2022/07/16 06:00:25;;;;;;;6.50;3.13;;;;;;;16.55;51.15;97168.19;4979157;28;20078;-82
2022/07/16 06:02:53;;;;;;;4.20;2.55;;;;;;;16.57;50.98;97168.78;4979918;28;20050;-78
2022/07/16 06:05:20;;;;;;;4.40;3.05;;;;;;;16.62;51.10;97167.16;4978471;28;20061;-80
2022/07/16 06:07:48;;;;;;;3.67;3.20;;;;;;;16.69;50.96;97157.41;4978580;28;20497;-76
2022/07/16 06:10:16;;;;;;;6.35;2.92;;;;;;;16.73;50.50;97163.09;4978471;28;20378;-79
2022/07/16 06:12:43;;;;;;;3.72;3.30;;;;;;;16.77;50.60;97163.47;4980184;28;20145;-79
2022/07/16 06:15:12;;;;;;;4.00;2.35;;;;;;;16.83;51.25;97163.47;4981354;28;20062;-79
2022/07/16 06:17:41;;;;;;;4.72;3.00;;;;;;;16.92;50.31;97165.91;4981211;28;20055;-79
2022/07/16 06:20:10;;;;;;;4.28;3.13;;;;;;;16.98;50.12;97168.50;4981628;28;20055;-79
2022/07/16 06:22:38;;;;;;;6.82;3.38;;;;;;;17.06;50.64;97165.66;4980715;28;20043;-79
2022/07/16 06:25:11;;;;;;;3.80;2.70;;;;;;;17.15;51.17;97165.41;4980499;28;20571;-79
2022/07/16 06:27:41;;;;;;;4.18;3.10;;;;;;;17.24;50.75;97169.44;4980826;28;20118;-79
2022/07/16 06:30:10;;;;;;;2.72;2.47;;;;;;;17.33;51.11;97183.19;4979800;28;20082;-78
2022/07/16 06:32:38;;;;;;;5.35;3.45;;;;;;;17.39;49.71;97179.72;4980675;28;20050;-79
2022/07/16 06:35:08;;;;;;;10.15;3.20;;;;;;;17.45;49.81;97176.22;4980878;28;20051;-80
2022/07/16 06:37:36;;;;;;;6.07;3.13;;;;;;;17.52;49.69;97184.09;4979911;28;20082;-79
2022/07/16 06:40:04;;;;;;;7.35;3.28;;;;;;;17.56;49.41;97188.75;4980760;28;20075;-82
2022/07/16 06:42:32;;;;;;;3.63;2.85;;;;;;;17.62;49.38;97189.72;4982331;28;20046;-82
2022/07/16 06:45:00;;;;;;;7.97;3.17;;;;;;;17.68;49.50;97188.88;4984198;28;20082;-80
2022/07/16 06:47:28;;;;;;;3.83;3.08;;;;;;;17.75;49.88;97186.19;4987442;28;20074;-81
2022/07/16 06:49:55;;;;;;;4.10;2.95;;;;;;;17.81;49.73;97180.06;4987412;28;20082;-80
2022/07/16 06:52:24;;;;;;;7.88;3.38;;;;;;;17.89;49.49;97185.94;4987424;28;20043;-79
2022/07/16 06:54:52;;;;;;;9.65;3.53;;;;;;;17.97;49.26;97187.47;4988999;28;20085;-81
2022/07/16 06:57:21;;;;;;;4.30;2.97;;;;;;;18.05;49.10;97186.41;4988118;28;20055;-79
2022/07/16 06:59:49;;;;;;;11.65;4.90;;;;;;;18.12;49.01;97187.97;4985500;28;20078;-80
2022/07/16 07:02:16;;;;;;;6.57;3.10;;;;;;;18.19;48.72;97189.75;4986629;28;20074;-79
2022/07/16 07:04:44;;;;;;;6.20;3.33;;;;;;;18.26;48.83;97190.53;4986464;28;20109;-80
2022/07/16 07:07:12;;;;;;;4.25;3.20;;;;;;;18.33;48.73;97192.06;4985717;28;20054;-79
2022/07/16 07:09:40;;;;;;;5.57;3.25;;;;;;;18.43;48.38;97194.25;4986141;28;20113;-81
2022/07/16 07:12:08;;;;;;;3.95;3.45;;;;;;;18.52;48.36;97192.13;4985311;28;20089;-80
2022/07/16 07:14:36;;;;;;;3.95;2.63;;;;;;;18.61;48.27;97197.94;4985889;28;20087;-79
2022/07/16 07:17:03;;;;;;;8.77;3.92;;;;;;;18.69;47.38;97195.81;4985846;28;20073;-78
2022/07/16 07:19:31;;;;;;;5.95;2.97;;;;;;;18.79;47.16;97197.19;4985109;28;20082;-79
2022/07/16 07:21:59;;;;;;;3.90;2.97;;;;;;;18.86;46.89;97197.91;4984528;28;20047;-78
2022/07/16 07:24:27;;;;;;;22.33;13.77;;;;;;;18.93;46.72;97194.19;4985263;28;20256;-81
2022/07/16 07:27:18;;;;;;;7.13;3.58;;;;;;;19.04;46.86;97197.09;4984495;28;20051;-78
2022/07/16 07:29:46;;;;;;;4.75;3.05;;;;;;;19.12;46.09;97192.31;4984956;28;20054;-79
2022/07/16 07:32:15;;;;;;;6.45;2.97;;;;;;;19.21;46.10;97195.47;4984603;28;20085;-81
2022/07/16 07:34:42;;;;;;;4.80;2.75;;;;;;;19.28;46.33;97190.91;4984924;28;20134;-79
2022/07/16 07:37:10;;;;;;;3.63;2.35;;;;;;;19.37;44.78;97187.97;4984765;28;20122;-78
2022/07/16 07:39:38;;;;;;;2.78;1.98;;;;;;;19.45;44.50;97185.00;4984483;28;20453;-79
2022/07/16 07:42:05;;;;;;;2.72;2.10;;;;;;;19.56;43.87;97186.88;4985435;28;20516;-82
2022/07/16 07:44:34;;;;;;;7.18;2.22;;;;;;;19.65;43.81;97190.03;4986805;28;20086;-79
2022/07/16 07:47:02;;;;;;;3.05;2.17;;;;;;;19.73;43.44;97187.91;4986636;28;20069;-78
2022/07/16 07:49:29;;;;;;;3.45;2.25;;;;;;;19.83;43.09;97184.72;4986948;28;20061;-79
2022/07/16 07:51:57;;;;;;;5.32;1.92;;;;;;;19.92;42.89;97191.31;4985482;28;20535;-79
2022/07/16 07:54:24;;;;;;;2.13;1.90;;;;;;;19.99;41.78;97187.75;4986083;28;20074;-80
2022/07/16 07:56:52;;;;;;;2.10;1.75;;;;;;;20.05;41.93;97184.16;4985669;28;20054;-77
2022/07/16 07:59:20;;;;;;;3.25;1.55;;;;;;;20.13;41.86;97189.94;4984953;28;20174;-78
2022/07/16 08:01:48;;;;;;;2.25;1.73;;;;;;;20.21;41.56;97191.47;4984281;28;20473;-77
2022/07/16 08:04:16;;;;;;;3.17;1.75;;;;;;;20.27;40.17;97197.66;4984741;28;20057;-78
2022/07/16 08:06:44;;;;;;;3.42;1.95;;;;;;;20.32;39.36;97188.00;4984297;28;20046;-78
2022/07/16 08:09:12;;;;;;;14.23;8.23;;;;;;;20.40;38.99;97186.06;4994406;23;20133;-75
2022/07/16 08:11:39;;;;;;;3.67;2.05;;;;;;;20.48;38.95;97191.00;4974477;28;20085;-75
2022/07/16 08:14:07;;;;;;;3.28;1.70;;;;;;;20.56;39.05;97191.47;4975888;28;20142;-75
2022/07/16 08:16:55;;;;;;;9.55;8.00;;;;;;;20.65;38.46;97188.50;4975932;28;20062;-75
2022/07/16 08:19:23;;;;;;;1.70;1.60;;;;;;;20.72;37.36;97175.94;4975569;28;20058;-75
2022/07/16 08:21:50;;;;;;;2.65;1.63;;;;;;;20.76;37.56;97185.84;4975324;28;20053;-75
2022/07/16 08:27:04;;;;;;;4.47;1.63;;;;;;;20.89;37.22;97187.44;4975466;28;20478;-75
2022/07/16 08:29:32;;;;;;;8.23;5.45;;;;;;;20.97;37.16;97181.00;4975709;28;20086;-75
2022/07/16 08:32:01;;;;;;;10.80;7.90;;;;;;;21.04;37.34;97181.66;4975587;28;20420;-75
2022/07/16 08:34:28;;;;;;;3.33;1.98;;;;;;;21.11;37.23;97181.53;4977015;28;20142;-75
2022/07/16 08:36:56;;;;;;;3.08;1.40;;;;;;;21.17;37.19;97188.53;4977525;28;20086;-75
2022/07/16 08:39:24;;;;;;;3.03;1.52;;;;;;;21.24;37.05;97191.88;4978005;28;20202;-74
2022/07/16 08:41:53;;;;;;;2.92;1.70;;;;;;;21.29;37.07;97177.88;4976733;28;20050;-75
2022/07/16 08:44:21;;;;;;;3.30;1.70;;;;;;;21.39;37.32;97186.06;4976596;28;20424;-75
2022/07/16 08:46:49;;;;;;;3.15;1.65;;;;;;;21.47;37.12;97187.53;4975711;28;20517;-75
2022/07/16 08:49:19;;;;;;;2.85;1.90;;;;;;;21.55;37.30;97195.13;4975745;28;20145;-75
2022/07/16 08:51:48;;;;;;;2.85;1.90;;;;;;;21.61;37.30;97186.22;4975795;28;20057;-75
2022/07/16 08:54:19;;;;;;;2.58;1.38;;;;;;;21.68;36.68;97192.19;4991196;28;20511;-75
2022/07/16 08:56:49;;;;;;;2.75;1.20;;;;;;;21.75;35.88;97192.03;4993930;28;20081;-75
2022/07/16 08:59:17;;;;;;;5.20;1.20;;;;;;;21.80;35.86;97195.59;4977973;28;20344;-75
2022/07/16 09:01:45;;;;;;;1.85;1.25;;;;;;;21.86;35.73;97185.84;4975822;28;20089;-75
2022/07/16 09:04:12;;;;;;;1.65;1.40;;;;;;;21.93;35.87;97183.03;4975229;28;20097;-74
2022/07/16 09:06:41;;;;;;;1.92;1.08;;;;;;;21.98;35.05;97191.13;4975110;28;20054;-74
2022/07/16 09:09:10;;;;;;;2.53;1.60;;;;;;;22.02;34.96;97189.59;4973445;28;20497;-75
2022/07/16 09:11:37;;;;;;;2.90;1.55;;;;;;;22.08;35.14;97191.28;4974893;28;20061;-75
2022/07/16 09:14:08;;;;;;;2.90;1.50;;;;;;;22.13;34.92;97188.72;4974971;28;20047;-75
2022/07/16 09:16:38;;;;;;;4.32;1.50;;;;;;;22.21;34.71;97190.97;4974958;28;20146;-75
2022/07/16 09:19:09;;;;;;;3.15;1.48;;;;;;;22.29;34.98;97183.66;4992748;28;20065;-75
2022/07/16 09:21:37;;;;;;;4.10;1.33;;;;;;;22.39;35.29;97186.47;4995289;28;20517;-75
2022/07/16 09:24:06;;;;;;;1.92;1.42;;;;;;;22.50;35.07;97195.41;4987014;28;20125;-74
2022/07/16 09:26:34;;;;;;;2.17;1.67;;;;;;;22.58;35.06;97184.34;4975822;28;20076;-75
2022/07/16 09:29:04;;;;;;;5.22;1.60;;;;;;;22.65;35.06;97184.97;4982099;28;20134;-75
2022/07/16 09:31:35;;;;;;;3.38;1.35;;;;;;;22.73;33.83;97189.09;4981933;28;20057;-75
2022/07/16 09:34:04;;;;;;;2.88;1.13;;;;;;;22.79;34.76;97196.09;4978922;28;20141;-75
2022/07/16 09:36:32;;;;;;;6.07;1.42;;;;;;;22.81;34.04;97191.34;4975135;28;20150;-74
2022/07/16 09:39:00;;;;;;;2.33;1.40;;;;;;;22.87;33.87;97182.38;4975920;28;20665;-75
2022/07/16 09:41:41;;;;;;;2.75;1.52;;;;;;;22.93;34.52;97192.00;4974565;28;20643;-75
2022/07/16 09:44:14;;;;;;;3.78;1.25;;;;;;;22.99;33.54;97191.03;4974479;28;20082;-75
2022/07/16 09:46:58;;;;;;;2.45;1.10;;;;;;;23.06;33.86;97192.75;4974061;28;20421;-75
2022/07/16 09:49:26;;;;;;;2.17;1.20;;;;;;;23.13;33.79;97190.69;4973911;28;20061;-75
2022/07/16 09:51:55;;;;;;;1.75;1.00;;;;;;;23.17;33.46;97181.16;4974117;28;20093;-75
2022/07/16 09:54:27;;;;;;;2.90;1.05;;;;;;;23.22;31.55;97189.19;4975528;28;20465;-75
2022/07/16 09:57:18;;;;;;;;;;;;;;;23.24;32.36;97187.09;4974656;28;20484;-75
2022/07/16 09:59:47;;;;;;;1.90;1.15;;;;;;;23.25;32.12;97188.72;4973964;28;19932;-75
2022/07/16 10:02:31;;;;;;;1.70;1.00;;;;;;;23.29;32.48;97194.38;4973964;28;20148;-75
2022/07/16 10:04:59;;;;;;;2.63;0.98;;;;;;;23.34;31.92;97187.22;4973928;28;20058;-75
2022/07/16 10:07:32;;;;;;;2.17;1.13;;;;;;;23.37;31.87;97181.38;4974037;28;20051;-75
2022/07/16 10:10:00;;;;;;;1.33;0.98;;;;;;;23.42;31.30;97178.00;4973116;28;20055;-75
2022/07/16 10:12:30;;;;;;;2.05;1.05;;;;;;;23.49;31.30;97172.47;4974146;28;20059;-75
2022/07/16 10:14:59;;;;;;;2.42;0.90;;;;;;;23.54;30.92;97178.66;4973943;28;20105;-75
2022/07/16 10:17:32;;;;;;;3.53;1.33;;;;;;;23.61;30.56;97178.44;4973719;28;20077;-75
2022/07/16 10:20:04;;;;;;;1.27;1.00;;;;;;;23.65;30.06;97167.03;4972954;28;20051;-75
2022/07/16 10:22:35;;;;;;;3.17;1.20;;;;;;;23.69;29.76;97167.34;4973466;28;20058;-75
2022/07/16 10:25:11;;;;;;;3.13;0.75;;;;;;;23.72;30.61;97174.81;4973606;28;20138;-75
2022/07/16 10:27:42;;;;;;;2.35;1.00;;;;;;;23.77;30.36;97174.91;4975218;28;20146;-75
2022/07/16 10:30:18;;;;;;;1.30;1.02;;;;;;;23.80;29.56;97174.41;4973278;28;20500;-75
2022/07/16 10:33:12;;;;;;;1.60;0.88;;;;;;;23.82;30.64;97174.97;4973862;28;20059;-75
2022/07/16 10:35:44;;;;;;;1.80;0.90;;;;;;;23.87;30.20;97173.41;4973663;28;20062;-75
2022/07/16 10:38:14;;;;;;;2.60;1.23;;;;;;;23.93;30.44;97175.06;4973622;28;20420;-75
2022/07/16 10:41:06;;;;;;;0.93;0.93;;;;;;;23.98;29.73;97175.09;4973161;28;20051;-75
2022/07/16 10:43:36;;;;;;;1.33;1.02;;;;;;;24.00;29.69;97179.09;4973554;28;20061;-75
2022/07/16 10:46:05;;;;;;;2.63;1.00;;;;;;;24.05;30.05;97184.50;4973497;28;20058;-76
2022/07/16 10:49:06;;;;;;;2.17;1.02;;;;;;;24.08;29.50;97180.50;4973263;28;20050;-75
2022/07/16 10:51:33;;;;;;;3.00;0.95;;;;;;;24.12;30.22;97178.13;4973480;28;20445;-75
2022/07/16 10:54:29;;;;;;;3.22;1.00;;;;;;;24.16;29.66;97182.72;4974591;28;20050;-75
2022/07/16 10:56:59;;;;;;;2.00;1.08;;;;;;;24.19;30.37;97182.19;4974506;28;20141;-75
2022/07/16 10:59:30;;;;;;;2.35;0.95;;;;;;;24.25;29.87;97173.19;4974045;28;20061;-75
2022/07/16 11:02:01;;;;;;;3.35;1.23;;;;;;;24.30;29.64;97174.28;4973270;28;20486;-75
2022/07/16 11:04:32;;;;;;;2.50;1.00;;;;;;;24.34;29.56;97183.38;4973424;28;20417;-75
2022/07/16 11:07:02;;;;;;;2.13;0.88;;;;;;;24.37;29.55;97178.31;4973462;28;20096;-75
2022/07/16 11:09:32;;;;;;;2.03;0.60;;;;;;;24.42;29.26;97175.72;4973407;28;20082;-75
2022/07/16 11:12:12;;;;;;;2.35;0.90;;;;;;;24.45;28.58;97174.41;4973083;28;20145;-75
2022/07/16 11:14:43;;;;;;;2.60;0.73;;;;;;;24.50;29.26;97170.97;4973266;28;20050;-75
2022/07/16 11:17:11;;;;;;;2.08;0.98;;;;;;;24.52;28.32;97177.66;4973043;28;20492;-75
2022/07/16 11:19:41;;;;;;;2.10;0.85;;;;;;;24.53;28.71;97175.78;4973291;28;20047;-75
2022/07/16 11:22:11;;;;;;;2.35;0.88;;;;;;;24.55;28.84;97174.47;4972818;28;20050;-75
2022/07/16 11:24:45;;;;;;;1.15;0.60;;;;;;;24.56;28.24;97177.97;4972858;28;20055;-75
2022/07/16 11:27:13;;;;;;;1.77;0.73;;;;;;;24.58;28.55;97173.19;4972975;28;20093;-76
2022/07/16 11:29:43;;;;;;;3.08;0.80;;;;;;;24.61;28.39;97164.66;4973093;28;20058;-75
2022/07/16 11:32:15;;;;;;;2.63;0.80;;;;;;;24.63;28.02;97171.31;4973436;28;20579;-75
2022/07/16 11:34:43;;;;;;;2.70;1.48;;;;;;;24.66;28.40;97170.81;4976783;28;20047;-79
2022/07/16 11:37:11;;;;;;;3.00;1.00;;;;;;;24.67;28.05;97167.09;4976367;28;20150;-75
2022/07/16 11:39:39;;;;;;;2.05;0.80;;;;;;;24.70;28.02;97164.97;4976144;28;20078;-75
2022/07/16 11:42:07;;;;;;;3.88;0.95;;;;;;;24.75;28.44;97171.13;4976303;28;20078;-75
2022/07/16 11:44:38;;;;;;;2.97;1.05;;;;;;;24.79;27.93;97182.06;4976420;28;20042;-75
2022/07/16 11:47:10;;;;;;;1.23;1.00;;;;;;;24.80;27.86;97171.16;4977007;28;20135;-75
2022/07/16 11:49:39;;;;;;;3.35;0.70;;;;;;;24.82;28.09;97173.56;4976350;28;20575;-75